sensor_id;sensor_type;location;lat;lon;timestamp;temperature;humidity
3818;DHT22;1924;48.078;11.516;2023-06-26T04:01:33;17.60;84.20
3818;DHT22;1924;48.078;11.516;2023-06-26T04:04:03;17.70;84.10
3818;DHT22;1924;48.078;11.516;2023-06-26T04:06:29;17.70;84.70
3818;DHT22;1924;48.078;11.516;2023-06-26T04:08:57;17.70;84.60
3818;DHT22;1924;48.078;11.516;2023-06-26T04:11:24;17.70;85.00
3818;DHT22;1924;48.078;11.516;2023-06-26T04:13:51;17.70;84.30
3818;DHT22;1924;48.078;11.516;2023-06-26T04:16:20;17.80;84.70
3818;DHT22;1924;48.078;11.516;2023-06-26T04:18:52;17.80;83.90
3818;DHT22;1924;48.078;11.516;2023-06-26T04:21:21;17.90;85.10
3818;DHT22;1924;48.078;11.516;2023-06-26T04:23:50;17.90;84.40
3818;DHT22;1924;48.078;11.516;2023-06-26T04:26:17;18.00;84.50
3818;DHT22;1924;48.078;11.516;2023-06-26T04:28:43;18.10;84.00
3818;DHT22;1924;48.078;11.516;2023-06-26T04:31:10;18.20;84.10
3818;DHT22;1924;48.078;11.516;2023-06-26T04:33:37;18.40;83.40
3818;DHT22;1924;48.078;11.516;2023-06-26T04:36:06;18.60;82.90
3818;DHT22;1924;48.078;11.516;2023-06-26T04:38:33;18.80;82.70
3818;DHT22;1924;48.078;11.516;2023-06-26T04:41:00;18.90;83.00
3818;DHT22;1924;48.078;11.516;2023-06-26T04:43:27;19.10;83.00
3818;DHT22;1924;48.078;11.516;2023-06-26T04:45:54;19.30;81.70
3818;DHT22;1924;48.078;11.516;2023-06-26T04:48:21;19.40;82.50
3818;DHT22;1924;48.078;11.516;2023-06-26T04:50:48;19.60;81.80
3818;DHT22;1924;48.078;11.516;2023-06-26T04:53:21;19.80;81.80
3818;DHT22;1924;48.078;11.516;2023-06-26T04:55:48;19.90;81.00
3818;DHT22;1924;48.078;11.516;2023-06-26T04:58:15;20.10;80.60
3818;DHT22;1924;48.078;11.516;2023-06-26T05:00:42;20.20;79.90
3818;DHT22;1924;48.078;11.516;2023-06-26T05:03:09;20.30;80.30
3818;DHT22;1924;48.078;11.516;2023-06-26T05:05:36;20.50;79.50
3818;DHT22;1924;48.078;11.516;2023-06-26T05:08:13;20.60;79.20
3818;DHT22;1924;48.078;11.516;2023-06-26T05:10:42;20.70;78.90
3818;DHT22;1924;48.078;11.516;2023-06-26T05:13:09;20.80;78.40
3818;DHT22;1924;48.078;11.516;2023-06-26T05:15:35;20.80;79.10
3818;DHT22;1924;48.078;11.516;2023-06-26T05:18:02;20.90;79.60
3818;DHT22;1924;48.078;11.516;2023-06-26T05:20:29;21.00;78.70
3818;DHT22;1924;48.078;11.516;2023-06-26T05:22:56;21.10;78.50
3818;DHT22;1924;48.078;11.516;2023-06-26T05:25:24;21.30;78.50
3818;DHT22;1924;48.078;11.516;2023-06-26T05:27:54;21.40;77.80
3818;DHT22;1924;48.078;11.516;2023-06-26T05:30:21;21.50;77.90
3818;DHT22;1924;48.078;11.516;2023-06-26T05:32:51;21.60;77.10
3818;DHT22;1924;48.078;11.516;2023-06-26T05:35:18;21.80;76.40
3818;DHT22;1924;48.078;11.516;2023-06-26T05:37:48;21.90;77.50
3818;DHT22;1924;48.078;11.516;2023-06-26T05:40:16;22.10;77.10
3818;DHT22;1924;48.078;11.516;2023-06-26T05:42:43;22.40;77.00
3818;DHT22;1924;48.078;11.516;2023-06-26T05:45:12;22.50;76.90
3818;DHT22;1924;48.078;11.516;2023-06-26T05:47:38;22.70;76.30
3818;DHT22;1924;48.078;11.516;2023-06-26T05:50:07;22.90;76.50
3818;DHT22;1924;48.078;11.516;2023-06-26T05:52:34;23.00;76.60
3818;DHT22;1924;48.078;11.516;2023-06-26T05:55:02;23.10;76.70
3818;DHT22;1924;48.078;11.516;2023-06-26T05:57:30;23.20;76.70
3818;DHT22;1924;48.078;11.516;2023-06-26T05:59:57;23.40;77.50
3818;DHT22;1924;48.078;11.516;2023-06-26T06:02:26;23.50;77.20
3818;DHT22;1924;48.078;11.516;2023-06-26T06:04:52;23.70;75.70
3818;DHT22;1924;48.078;11.516;2023-06-26T06:07:19;23.80;75.70
3818;DHT22;1924;48.078;11.516;2023-06-26T06:09:47;24.00;76.10
3818;DHT22;1924;48.078;11.516;2023-06-26T06:12:14;24.20;76.20
3818;DHT22;1924;48.078;11.516;2023-06-26T06:14:40;24.30;75.50
3818;DHT22;1924;48.078;11.516;2023-06-26T06:17:07;24.40;76.50
3818;DHT22;1924;48.078;11.516;2023-06-26T06:19:35;24.50;73.00
3818;DHT22;1924;48.078;11.516;2023-06-26T06:22:02;24.60;74.20
3818;DHT22;1924;48.078;11.516;2023-06-26T06:24:29;24.70;73.80
3818;DHT22;1924;48.078;11.516;2023-06-26T06:26:55;24.80;73.70
3818;DHT22;1924;48.078;11.516;2023-06-26T06:29:22;24.90;74.90
3818;DHT22;1924;48.078;11.516;2023-06-26T06:31:49;25.00;74.20
3818;DHT22;1924;48.078;11.516;2023-06-26T06:34:17;25.20;75.20
3818;DHT22;1924;48.078;11.516;2023-06-26T06:36:46;25.30;72.80
3818;DHT22;1924;48.078;11.516;2023-06-26T06:39:12;25.40;73.00
3818;DHT22;1924;48.078;11.516;2023-06-26T06:41:39;25.50;71.30
3818;DHT22;1924;48.078;11.516;2023-06-26T06:44:06;25.60;71.30
3818;DHT22;1924;48.078;11.516;2023-06-26T06:46:33;25.70;69.90
3818;DHT22;1924;48.078;11.516;2023-06-26T06:49:00;25.70;71.20
3818;DHT22;1924;48.078;11.516;2023-06-26T06:51:27;25.80;70.20
3818;DHT22;1924;48.078;11.516;2023-06-26T06:53:55;25.80;70.50
3818;DHT22;1924;48.078;11.516;2023-06-26T06:56:22;25.90;70.80
3818;DHT22;1924;48.078;11.516;2023-06-26T06:58:49;25.90;72.00
3818;DHT22;1924;48.078;11.516;2023-06-26T07:01:15;25.90;69.30
3818;DHT22;1924;48.078;11.516;2023-06-26T07:03:42;26.00;68.40
3818;DHT22;1924;48.078;11.516;2023-06-26T07:06:09;26.00;70.00
3818;DHT22;1924;48.078;11.516;2023-06-26T07:08:36;26.10;69.60
3818;DHT22;1924;48.078;11.516;2023-06-26T07:11:04;26.20;69.00
3818;DHT22;1924;48.078;11.516;2023-06-26T07:13:30;26.30;69.20
3818;DHT22;1924;48.078;11.516;2023-06-26T07:15:57;26.30;70.10
3818;DHT22;1924;48.078;11.516;2023-06-26T07:18:24;26.40;68.90
3818;DHT22;1924;48.078;11.516;2023-06-26T07:20:51;26.40;70.00
3818;DHT22;1924;48.078;11.516;2023-06-26T07:23:17;26.50;68.70
3818;DHT22;1924;48.078;11.516;2023-06-26T07:25:44;26.50;69.20
3818;DHT22;1924;48.078;11.516;2023-06-26T07:28:12;26.50;69.10
3818;DHT22;1924;48.078;11.516;2023-06-26T07:30:39;26.60;67.60
3818;DHT22;1924;48.078;11.516;2023-06-26T07:33:06;26.70;66.30
3818;DHT22;1924;48.078;11.516;2023-06-26T07:35:33;26.60;66.00
3818;DHT22;1924;48.078;11.516;2023-06-26T07:38:00;26.80;66.90
3818;DHT22;1924;48.078;11.516;2023-06-26T07:40:26;26.80;67.50
3818;DHT22;1924;48.078;11.516;2023-06-26T07:42:53;26.70;68.80
3818;DHT22;1924;48.078;11.516;2023-06-26T07:45:21;26.80;66.30
3818;DHT22;1924;48.078;11.516;2023-06-26T07:47:48;26.80;65.20
3818;DHT22;1924;48.078;11.516;2023-06-26T07:50:15;26.90;67.10
3818;DHT22;1924;48.078;11.516;2023-06-26T07:52:46;26.90;67.30
3818;DHT22;1924;48.078;11.516;2023-06-26T07:55:13;27.00;66.90
3818;DHT22;1924;48.078;11.516;2023-06-26T07:57:40;27.00;65.60
3818;DHT22;1924;48.078;11.516;2023-06-26T08:00:08;27.00;67.40
3818;DHT22;1924;48.078;11.516;2023-06-26T08:02:36;27.00;67.00
3818;DHT22;1924;48.078;11.516;2023-06-26T08:05:03;27.00;67.00
3818;DHT22;1924;48.078;11.516;2023-06-26T08:07:29;27.00;68.00
3818;DHT22;1924;48.078;11.516;2023-06-26T08:09:56;27.00;68.80
3818;DHT22;1924;48.078;11.516;2023-06-26T08:12:23;27.00;68.00
3818;DHT22;1924;48.078;11.516;2023-06-26T08:14:49;27.00;67.70
3818;DHT22;1924;48.078;11.516;2023-06-26T08:17:16;27.00;69.20
3818;DHT22;1924;48.078;11.516;2023-06-26T08:19:44;26.90;67.60
3818;DHT22;1924;48.078;11.516;2023-06-26T08:22:11;26.90;68.00
3818;DHT22;1924;48.078;11.516;2023-06-26T08:24:37;27.00;68.70
3818;DHT22;1924;48.078;11.516;2023-06-26T08:27:04;27.20;67.10
3818;DHT22;1924;48.078;11.516;2023-06-26T08:29:32;27.20;68.60
3818;DHT22;1924;48.078;11.516;2023-06-26T08:31:59;27.30;67.90
3818;DHT22;1924;48.078;11.516;2023-06-26T08:34:27;27.50;67.10
3818;DHT22;1924;48.078;11.516;2023-06-26T08:36:55;27.50;66.30
3818;DHT22;1924;48.078;11.516;2023-06-26T08:39:23;27.40;68.10
3818;DHT22;1924;48.078;11.516;2023-06-26T08:41:50;27.50;66.60
3818;DHT22;1924;48.078;11.516;2023-06-26T08:44:17;27.50;65.80
3818;DHT22;1924;48.078;11.516;2023-06-26T08:46:46;27.50;66.00
3818;DHT22;1924;48.078;11.516;2023-06-26T08:49:17;27.50;66.40
3818;DHT22;1924;48.078;11.516;2023-06-26T08:51:51;27.60;65.10
3818;DHT22;1924;48.078;11.516;2023-06-26T08:54:25;27.70;62.60
3818;DHT22;1924;48.078;11.516;2023-06-26T08:56:55;27.70;64.00
3818;DHT22;1924;48.078;11.516;2023-06-26T08:59:22;27.80;65.70
3818;DHT22;1924;48.078;11.516;2023-06-26T09:01:50;27.70;63.50
3818;DHT22;1924;48.078;11.516;2023-06-26T09:04:17;27.70;63.60
3818;DHT22;1924;48.078;11.516;2023-06-26T09:06:44;27.80;63.40
3818;DHT22;1924;48.078;11.516;2023-06-26T09:09:10;27.90;63.80
3818;DHT22;1924;48.078;11.516;2023-06-26T09:11:39;27.80;62.60
3818;DHT22;1924;48.078;11.516;2023-06-26T09:14:11;27.80;61.80
3818;DHT22;1924;48.078;11.516;2023-06-26T09:16:40;27.80;62.60
3818;DHT22;1924;48.078;11.516;2023-06-26T09:19:11;27.90;62.90
3818;DHT22;1924;48.078;11.516;2023-06-26T09:21:38;28.00;62.90
3818;DHT22;1924;48.078;11.516;2023-06-26T09:24:07;27.90;62.50
3818;DHT22;1924;48.078;11.516;2023-06-26T09:26:35;27.60;62.30
3818;DHT22;1924;48.078;11.516;2023-06-26T09:29:07;27.60;64.60
3818;DHT22;1924;48.078;11.516;2023-06-26T09:31:36;27.80;64.60
3818;DHT22;1924;48.078;11.516;2023-06-26T09:34:04;27.80;64.70
3818;DHT22;1924;48.078;11.516;2023-06-26T09:36:34;27.70;61.20
3818;DHT22;1924;48.078;11.516;2023-06-26T09:39:05;27.50;63.10
3818;DHT22;1924;48.078;11.516;2023-06-26T09:41:36;27.20;64.50
3818;DHT22;1924;48.078;11.516;2023-06-26T09:44:04;27.00;66.70
3818;DHT22;1924;48.078;11.516;2023-06-26T09:46:35;27.00;66.90
3818;DHT22;1924;48.078;11.516;2023-06-26T09:49:05;27.30;61.90
3818;DHT22;1924;48.078;11.516;2023-06-26T09:51:33;27.50;61.70
3818;DHT22;1924;48.078;11.516;2023-06-26T09:54:03;27.50;61.20
3818;DHT22;1924;48.078;11.516;2023-06-26T09:56:32;27.40;58.80
3818;DHT22;1924;48.078;11.516;2023-06-26T09:59:01;27.30;59.70
3818;DHT22;1924;48.078;11.516;2023-06-26T10:01:28;27.00;59.70
3818;DHT22;1924;48.078;11.516;2023-06-26T10:03:57;27.20;60.60
3818;DHT22;1924;48.078;11.516;2023-06-26T10:06:29;27.40;60.10
3818;DHT22;1924;48.078;11.516;2023-06-26T10:09:00;27.40;58.20
3818;DHT22;1924;48.078;11.516;2023-06-26T10:11:37;27.50;58.70
3818;DHT22;1924;48.078;11.516;2023-06-26T10:14:07;27.70;59.10
3818;DHT22;1924;48.078;11.516;2023-06-26T10:16:37;27.80;62.90
3818;DHT22;1924;48.078;11.516;2023-06-26T10:19:11;28.00;61.00
3818;DHT22;1924;48.078;11.516;2023-06-26T10:21:40;28.10;58.10
3818;DHT22;1924;48.078;11.516;2023-06-26T10:24:07;28.30;58.70
3818;DHT22;1924;48.078;11.516;2023-06-26T10:26:36;28.60;60.40
3818;DHT22;1924;48.078;11.516;2023-06-26T10:29:05;28.80;58.90
3818;DHT22;1924;48.078;11.516;2023-06-26T10:31:34;29.10;56.10
3818;DHT22;1924;48.078;11.516;2023-06-26T10:34:08;29.40;58.10
3818;DHT22;1924;48.078;11.516;2023-06-26T10:36:36;29.60;56.40
3818;DHT22;1924;48.078;11.516;2023-06-26T10:39:04;29.70;60.10
3818;DHT22;1924;48.078;11.516;2023-06-26T10:41:37;29.70;55.60
3818;DHT22;1924;48.078;11.516;2023-06-26T10:44:07;29.20;53.50
3818;DHT22;1924;48.078;11.516;2023-06-26T10:46:50;28.80;53.70
3818;DHT22;1924;48.078;11.516;2023-06-26T10:49:19;28.40;57.50
3818;DHT22;1924;48.078;11.516;2023-06-26T10:51:47;28.40;56.60
3818;DHT22;1924;48.078;11.516;2023-06-26T10:54:16;28.90;56.40
3818;DHT22;1924;48.078;11.516;2023-06-26T10:56:47;29.20;55.20
3818;DHT22;1924;48.078;11.516;2023-06-26T10:59:17;29.60;55.70
3818;DHT22;1924;48.078;11.516;2023-06-26T11:01:45;29.90;56.50
3818;DHT22;1924;48.078;11.516;2023-06-26T11:04:13;29.70;58.70
3818;DHT22;1924;48.078;11.516;2023-06-26T11:06:46;29.20;55.80
3818;DHT22;1924;48.078;11.516;2023-06-26T11:09:17;29.00;56.30
3818;DHT22;1924;48.078;11.516;2023-06-26T11:11:59;28.70;54.60
3818;DHT22;1924;48.078;11.516;2023-06-26T11:14:30;28.70;58.90
3818;DHT22;1924;48.078;11.516;2023-06-26T11:17:03;29.10;58.00
3818;DHT22;1924;48.078;11.516;2023-06-26T11:19:30;29.10;55.90
3818;DHT22;1924;48.078;11.516;2023-06-26T11:22:05;29.10;55.10
3818;DHT22;1924;48.078;11.516;2023-06-26T11:24:34;29.30;57.00
3818;DHT22;1924;48.078;11.516;2023-06-26T11:27:05;29.60;54.50
3818;DHT22;1924;48.078;11.516;2023-06-26T11:29:32;30.10;58.80
3818;DHT22;1924;48.078;11.516;2023-06-26T11:32:01;30.30;54.80
3818;DHT22;1924;48.078;11.516;2023-06-26T11:34:31;30.40;53.80
3818;DHT22;1924;48.078;11.516;2023-06-26T11:36:58;30.20;54.50
3818;DHT22;1924;48.078;11.516;2023-06-26T11:39:28;29.70;53.80
3818;DHT22;1924;48.078;11.516;2023-06-26T11:41:55;29.50;54.50
3818;DHT22;1924;48.078;11.516;2023-06-26T11:44:22;29.80;54.50
3818;DHT22;1924;48.078;11.516;2023-06-26T11:46:52;29.60;52.70
3818;DHT22;1924;48.078;11.516;2023-06-26T11:49:21;29.70;53.30
3818;DHT22;1924;48.078;11.516;2023-06-26T11:51:49;30.00;53.70
3818;DHT22;1924;48.078;11.516;2023-06-26T11:54:23;29.90;52.30
3818;DHT22;1924;48.078;11.516;2023-06-26T11:56:56;29.50;52.80
3818;DHT22;1924;48.078;11.516;2023-06-26T11:59:23;29.20;54.80
3818;DHT22;1924;48.078;11.516;2023-06-26T12:01:51;29.30;56.60
3818;DHT22;1924;48.078;11.516;2023-06-26T12:04:19;29.60;54.00
3818;DHT22;1924;48.078;11.516;2023-06-26T12:06:48;29.40;53.60
3818;DHT22;1924;48.078;11.516;2023-06-26T12:09:17;29.10;55.60
3818;DHT22;1924;48.078;11.516;2023-06-26T12:11:46;29.20;59.90
3818;DHT22;1924;48.078;11.516;2023-06-26T12:14:16;29.50;56.90
3818;DHT22;1924;48.078;11.516;2023-06-26T12:16:44;29.90;58.40
3818;DHT22;1924;48.078;11.516;2023-06-26T12:19:13;29.70;56.50
3818;DHT22;1924;48.078;11.516;2023-06-26T12:21:45;29.50;58.60
3818;DHT22;1924;48.078;11.516;2023-06-26T12:24:14;29.60;55.80
3818;DHT22;1924;48.078;11.516;2023-06-26T12:26:42;29.50;55.80
3818;DHT22;1924;48.078;11.516;2023-06-26T12:29:12;29.60;54.60
3818;DHT22;1924;48.078;11.516;2023-06-26T12:31:44;29.80;54.90
3818;DHT22;1924;48.078;11.516;2023-06-26T12:34:12;29.90;52.10
3818;DHT22;1924;48.078;11.516;2023-06-26T12:36:42;30.10;56.80
3818;DHT22;1924;48.078;11.516;2023-06-26T12:39:10;30.20;54.90
3818;DHT22;1924;48.078;11.516;2023-06-26T12:41:45;30.10;54.10
3818;DHT22;1924;48.078;11.516;2023-06-26T12:44:19;29.90;54.50
3818;DHT22;1924;48.078;11.516;2023-06-26T12:46:49;29.90;56.00
3818;DHT22;1924;48.078;11.516;2023-06-26T12:49:16;29.90;55.70
3818;DHT22;1924;48.078;11.516;2023-06-26T12:51:44;29.90;53.70
3818;DHT22;1924;48.078;11.516;2023-06-26T12:54:12;29.50;53.70
3818;DHT22;1924;48.078;11.516;2023-06-26T12:56:38;29.20;56.30
3818;DHT22;1924;48.078;11.516;2023-06-26T12:59:05;29.20;56.30
3818;DHT22;1924;48.078;11.516;2023-06-26T13:01:32;29.60;55.30
3818;DHT22;1924;48.078;11.516;2023-06-26T13:04:01;29.90;56.80
3818;DHT22;1924;48.078;11.516;2023-06-26T13:06:29;30.20;54.90
3818;DHT22;1924;48.078;11.516;2023-06-26T13:08:56;30.40;53.80
3818;DHT22;1924;48.078;11.516;2023-06-26T13:11:22;30.60;53.50
3818;DHT22;1924;48.078;11.516;2023-06-26T13:13:49;30.80;54.90
3818;DHT22;1924;48.078;11.516;2023-06-26T13:16:16;30.70;49.90
3818;DHT22;1924;48.078;11.516;2023-06-26T13:18:44;30.20;50.70
3818;DHT22;1924;48.078;11.516;2023-06-26T13:21:12;29.80;54.20
3818;DHT22;1924;48.078;11.516;2023-06-26T13:23:39;29.40;54.20
3818;DHT22;1924;48.078;11.516;2023-06-26T13:26:06;29.20;54.20
3818;DHT22;1924;48.078;11.516;2023-06-26T13:28:32;29.30;52.70
3818;DHT22;1924;48.078;11.516;2023-06-26T13:30:59;29.20;55.50
3818;DHT22;1924;48.078;11.516;2023-06-26T13:33:26;29.00;55.80
3818;DHT22;1924;48.078;11.516;2023-06-26T13:35:53;28.90;58.60
3818;DHT22;1924;48.078;11.516;2023-06-26T13:38:22;29.10;56.40
3818;DHT22;1924;48.078;11.516;2023-06-26T13:40:50;29.40;55.70
3818;DHT22;1924;48.078;11.516;2023-06-26T13:43:18;29.60;55.70
3818;DHT22;1924;48.078;11.516;2023-06-26T13:45:44;29.80;53.40
3818;DHT22;1924;48.078;11.516;2023-06-26T13:48:11;30.00;54.70
3818;DHT22;1924;48.078;11.516;2023-06-26T13:50:38;29.90;52.80
3818;DHT22;1924;48.078;11.516;2023-06-26T13:53:05;29.80;54.10
3818;DHT22;1924;48.078;11.516;2023-06-26T13:55:34;29.70;54.40
3818;DHT22;1924;48.078;11.516;2023-06-26T13:58:00;29.50;55.50
3818;DHT22;1924;48.078;11.516;2023-06-26T14:00:29;29.30;56.30
3818;DHT22;1924;48.078;11.516;2023-06-26T14:02:56;29.30;54.70
3818;DHT22;1924;48.078;11.516;2023-06-26T14:05:23;29.30;55.00
3818;DHT22;1924;48.078;11.516;2023-06-26T14:07:49;29.00;54.60
3818;DHT22;1924;48.078;11.516;2023-06-26T14:10:16;28.90;56.50
3818;DHT22;1924;48.078;11.516;2023-06-26T14:12:44;28.80;56.00
3818;DHT22;1924;48.078;11.516;2023-06-26T14:15:11;28.80;57.40
3818;DHT22;1924;48.078;11.516;2023-06-26T14:17:38;28.80;54.20
3818;DHT22;1924;48.078;11.516;2023-06-26T14:20:06;28.80;55.50
3818;DHT22;1924;48.078;11.516;2023-06-26T14:22:34;28.80;58.70
3818;DHT22;1924;48.078;11.516;2023-06-26T14:25:02;28.90;58.00
3818;DHT22;1924;48.078;11.516;2023-06-26T14:27:28;28.90;56.20
3818;DHT22;1924;48.078;11.516;2023-06-26T14:29:56;28.80;56.20
3818;DHT22;1924;48.078;11.516;2023-06-26T14:32:23;28.70;57.80
3818;DHT22;1924;48.078;11.516;2023-06-26T14:34:50;28.50;58.10
3818;DHT22;1924;48.078;11.516;2023-06-26T14:37:16;28.40;56.60
3818;DHT22;1924;48.078;11.516;2023-06-26T14:39:44;28.30;56.40
3818;DHT22;1924;48.078;11.516;2023-06-26T14:42:11;28.40;57.30
3818;DHT22;1924;48.078;11.516;2023-06-26T14:44:38;28.50;57.10
3818;DHT22;1924;48.078;11.516;2023-06-26T14:47:06;28.70;56.50
3818;DHT22;1924;48.078;11.516;2023-06-26T14:49:33;28.80;55.60
3818;DHT22;1924;48.078;11.516;2023-06-26T14:51:59;28.90;55.70
3818;DHT22;1924;48.078;11.516;2023-06-26T14:54:26;29.00;55.30
3818;DHT22;1924;48.078;11.516;2023-06-26T14:56:53;29.00;55.20
3818;DHT22;1924;48.078;11.516;2023-06-26T14:59:19;29.00;55.10
3818;DHT22;1924;48.078;11.516;2023-06-26T15:01:46;29.00;56.30
3818;DHT22;1924;48.078;11.516;2023-06-26T15:04:14;28.90;54.20
3818;DHT22;1924;48.078;11.516;2023-06-26T15:06:41;28.90;54.30
3818;DHT22;1924;48.078;11.516;2023-06-26T15:09:07;28.80;55.00
3818;DHT22;1924;48.078;11.516;2023-06-26T15:11:34;28.80;56.10
3818;DHT22;1924;48.078;11.516;2023-06-26T15:14:01;28.90;56.20
3818;DHT22;1924;48.078;11.516;2023-06-26T15:16:28;28.90;56.10
3818;DHT22;1924;48.078;11.516;2023-06-26T15:18:55;28.90;54.90
3818;DHT22;1924;48.078;11.516;2023-06-26T15:21:23;28.90;53.50
3818;DHT22;1924;48.078;11.516;2023-06-26T15:23:50;28.80;54.80
3818;DHT22;1924;48.078;11.516;2023-06-26T15:26:17;28.60;54.00
3818;DHT22;1924;48.078;11.516;2023-06-26T15:28:44;28.50;56.20
3818;DHT22;1924;48.078;11.516;2023-06-26T15:31:10;28.30;56.20
3818;DHT22;1924;48.078;11.516;2023-06-26T15:33:37;28.20;57.40
3818;DHT22;1924;48.078;11.516;2023-06-26T15:36:04;28.10;55.10
3818;DHT22;1924;48.078;11.516;2023-06-26T15:38:33;28.00;55.10
3818;DHT22;1924;48.078;11.516;2023-06-26T15:40:59;27.90;56.10
3818;DHT22;1924;48.078;11.516;2023-06-26T15:43:26;27.80;55.70
3818;DHT22;1924;48.078;11.516;2023-06-26T15:45:53;27.70;55.50
3818;DHT22;1924;48.078;11.516;2023-06-26T15:48:19;27.60;56.70
3818;DHT22;1924;48.078;11.516;2023-06-26T15:50:46;27.60;56.20
3818;DHT22;1924;48.078;11.516;2023-06-26T15:53:16;27.50;65.30
3818;DHT22;1924;48.078;11.516;2023-06-26T15:55:44;27.20;77.40
3818;DHT22;1924;48.078;11.516;2023-06-26T15:58:12;26.50;81.20
3818;DHT22;1924;48.078;11.516;2023-06-26T16:00:39;26.10;81.60
3818;DHT22;1924;48.078;11.516;2023-06-26T16:03:06;25.80;82.80
3818;DHT22;1924;48.078;11.516;2023-06-26T16:05:33;25.60;83.70
3818;DHT22;1924;48.078;11.516;2023-06-26T16:07:59;25.50;86.40
3818;DHT22;1924;48.078;11.516;2023-06-26T16:10:26;25.40;81.90
3818;DHT22;1924;48.078;11.516;2023-06-26T16:12:55;25.40;81.70
3818;DHT22;1924;48.078;11.516;2023-06-26T16:15:22;25.50;79.60
3818;DHT22;1924;48.078;11.516;2023-06-26T16:17:49;25.60;78.60
3818;DHT22;1924;48.078;11.516;2023-06-26T16:20:16;25.70;80.40
3818;DHT22;1924;48.078;11.516;2023-06-26T16:22:42;25.80;77.80
3818;DHT22;1924;48.078;11.516;2023-06-26T16:25:09;25.90;78.50
3818;DHT22;1924;48.078;11.516;2023-06-26T16:27:36;26.20;78.30
3818;DHT22;1924;48.078;11.516;2023-06-26T16:30:05;26.10;76.40
3818;DHT22;1924;48.078;11.516;2023-06-26T16:32:32;26.10;76.20
3818;DHT22;1924;48.078;11.516;2023-06-26T16:34:59;26.30;75.20
3818;DHT22;1924;48.078;11.516;2023-06-26T16:37:26;26.30;73.60
3818;DHT22;1924;48.078;11.516;2023-06-26T16:39:52;26.30;74.50
3818;DHT22;1924;48.078;11.516;2023-06-26T16:42:20;26.30;75.50
3818;DHT22;1924;48.078;11.516;2023-06-26T16:44:46;26.20;74.70
3818;DHT22;1924;48.078;11.516;2023-06-26T16:47:14;26.20;73.70
3818;DHT22;1924;48.078;11.516;2023-06-26T16:49:42;26.10;74.10
3818;DHT22;1924;48.078;11.516;2023-06-26T16:52:09;26.10;73.30
3818;DHT22;1924;48.078;11.516;2023-06-26T16:54:36;26.10;74.00
3818;DHT22;1924;48.078;11.516;2023-06-26T16:57:03;26.00;72.40
3818;DHT22;1924;48.078;11.516;2023-06-26T16:59:30;26.00;72.00
3818;DHT22;1924;48.078;11.516;2023-06-26T17:01:56;25.90;71.70
3818;DHT22;1924;48.078;11.516;2023-06-26T17:04:28;25.90;72.10
3818;DHT22;1924;48.078;11.516;2023-06-26T17:06:55;26.00;71.10
3818;DHT22;1924;48.078;11.516;2023-06-26T17:09:22;25.90;72.70
3818;DHT22;1924;48.078;11.516;2023-06-26T17:11:50;25.90;71.00
3818;DHT22;1924;48.078;11.516;2023-06-26T17:14:17;25.90;71.50
3818;DHT22;1924;48.078;11.516;2023-06-26T17:16:43;25.90;71.60
3818;DHT22;1924;48.078;11.516;2023-06-26T17:19:10;25.90;71.70
3818;DHT22;1924;48.078;11.516;2023-06-26T17:21:39;25.90;71.00
3818;DHT22;1924;48.078;11.516;2023-06-26T17:24:06;25.90;71.20
3818;DHT22;1924;48.078;11.516;2023-06-26T17:26:32;25.90;71.30
3818;DHT22;1924;48.078;11.516;2023-06-26T17:28:59;25.90;71.50
3818;DHT22;1924;48.078;11.516;2023-06-26T17:31:26;25.90;71.50
3818;DHT22;1924;48.078;11.516;2023-06-26T17:33:53;25.90;70.70
3818;DHT22;1924;48.078;11.516;2023-06-26T17:36:19;26.00;71.60
3818;DHT22;1924;48.078;11.516;2023-06-26T17:38:47;26.00;70.00
3818;DHT22;1924;48.078;11.516;2023-06-26T17:41:14;26.10;71.70
3818;DHT22;1924;48.078;11.516;2023-06-26T17:43:41;26.10;70.30
3818;DHT22;1924;48.078;11.516;2023-06-26T17:46:08;26.20;71.70
3818;DHT22;1924;48.078;11.516;2023-06-26T17:48:34;26.20;72.50
3818;DHT22;1924;48.078;11.516;2023-06-26T17:51:01;26.10;73.20
3818;DHT22;1924;48.078;11.516;2023-06-26T17:53:29;26.00;72.80
3818;DHT22;1924;48.078;11.516;2023-06-26T17:55:57;26.00;75.00
3818;DHT22;1924;48.078;11.516;2023-06-26T17:58:25;25.90;73.40
3818;DHT22;1924;48.078;11.516;2023-06-26T18:00:51;25.80;74.50
3818;DHT22;1924;48.078;11.516;2023-06-26T18:03:18;25.70;75.50
3818;DHT22;1924;48.078;11.516;2023-06-26T18:05:45;25.70;75.30
3818;DHT22;1924;48.078;11.516;2023-06-26T18:08:11;25.70;76.30
3818;DHT22;1924;48.078;11.516;2023-06-26T18:10:39;25.60;77.30
3818;DHT22;1924;48.078;11.516;2023-06-26T18:13:07;25.50;78.00
3818;DHT22;1924;48.078;11.516;2023-06-26T18:15:35;25.30;78.50
3818;DHT22;1924;48.078;11.516;2023-06-26T18:18:01;25.30;78.90
3818;DHT22;1924;48.078;11.516;2023-06-26T18:20:28;25.20;80.00
3818;DHT22;1924;48.078;11.516;2023-06-26T18:22:55;25.00;80.60
3818;DHT22;1924;48.078;11.516;2023-06-26T18:25:22;25.10;80.80
3818;DHT22;1924;48.078;11.516;2023-06-26T18:27:49;25.00;80.40
3818;DHT22;1924;48.078;11.516;2023-06-26T18:30:17;24.90;80.60
3818;DHT22;1924;48.078;11.516;2023-06-26T18:32:44;24.80;81.20
3818;DHT22;1924;48.078;11.516;2023-06-26T18:35:11;24.80;81.80
3818;DHT22;1924;48.078;11.516;2023-06-26T18:37:38;24.70;82.20
3818;DHT22;1924;48.078;11.516;2023-06-26T18:40:06;24.70;83.00
3818;DHT22;1924;48.078;11.516;2023-06-26T18:42:39;24.70;82.60
3818;DHT22;1924;48.078;11.516;2023-06-26T18:45:07;24.60;83.20
3818;DHT22;1924;48.078;11.516;2023-06-26T18:47:35;24.60;84.10
3818;DHT22;1924;48.078;11.516;2023-06-26T18:50:02;24.60;84.40
3818;DHT22;1924;48.078;11.516;2023-06-26T18:52:29;24.60;83.40
3818;DHT22;1924;48.078;11.516;2023-06-26T18:54:55;24.50;83.80
3818;DHT22;1924;48.078;11.516;2023-06-26T18:57:22;24.50;84.70
3818;DHT22;1924;48.078;11.516;2023-06-26T18:59:49;24.30;85.40
3818;DHT22;1924;48.078;11.516;2023-06-26T19:02:16;24.40;84.50
3818;DHT22;1924;48.078;11.516;2023-06-26T19:04:44;24.40;83.80
3818;DHT22;1924;48.078;11.516;2023-06-26T19:07:11;24.30;83.80
3818;DHT22;1924;48.078;11.516;2023-06-26T19:09:38;24.30;84.70
3818;DHT22;1924;48.078;11.516;2023-06-26T19:12:05;24.30;84.50
3818;DHT22;1924;48.078;11.516;2023-06-26T19:14:32;24.30;85.90
3818;DHT22;1924;48.078;11.516;2023-06-26T19:16:59;24.20;86.00
3818;DHT22;1924;48.078;11.516;2023-06-26T19:19:25;24.10;87.00
3818;DHT22;1924;48.078;11.516;2023-06-26T19:21:53;24.10;86.70
3818;DHT22;1924;48.078;11.516;2023-06-26T19:24:20;24.00;87.20
3818;DHT22;1924;48.078;11.516;2023-06-26T19:26:47;23.90;87.50
3818;DHT22;1924;48.078;11.516;2023-06-26T19:29:15;23.90;87.40
3818;DHT22;1924;48.078;11.516;2023-06-26T19:31:41;23.90;87.70
3818;DHT22;1924;48.078;11.516;2023-06-26T19:34:08;23.90;88.00
3818;DHT22;1924;48.078;11.516;2023-06-26T19:36:35;23.90;88.10
3818;DHT22;1924;48.078;11.516;2023-06-26T19:39:03;23.80;87.70
3818;DHT22;1924;48.078;11.516;2023-06-26T19:41:29;23.80;88.40
3818;DHT22;1924;48.078;11.516;2023-06-26T19:43:56;23.70;88.40
3818;DHT22;1924;48.078;11.516;2023-06-26T19:46:23;23.80;89.40
3818;DHT22;1924;48.078;11.516;2023-06-26T19:48:50;23.70;88.30